sensor_id;sensor_type;location;lat;lon;timestamp;temperature;humidity
23237;DHT22;11787;52.018;8.570;2023-03-17T00:01:11;7.10;99.90
23237;DHT22;11787;52.018;8.570;2023-03-17T00:03:38;7.10;99.90
23237;DHT22;11787;52.018;8.570;2023-03-17T00:06:04;7.00;99.90
23237;DHT22;11787;52.018;8.570;2023-03-17T00:08:32;7.00;99.90
23237;DHT22;11787;52.018;8.570;2023-03-17T00:10:58;7.00;99.90
23237;DHT22;11787;52.018;8.570;2023-03-17T00:13:23;7.00;99.90
23237;DHT22;11787;52.018;8.570;2023-03-17T00:15:53;7.00;99.90
23237;DHT22;11787;52.018;8.570;2023-03-17T00:18:20;7.00;99.90
23237;DHT22;11787;52.018;8.570;2023-03-17T00:20:46;7.00;99.90
23237;DHT22;11787;52.018;8.570;2023-03-17T00:23:14;6.90;99.90
23237;DHT22;11787;52.018;8.570;2023-03-17T00:25:40;6.90;99.90
23237;DHT22;11787;52.018;8.570;2023-03-17T00:28:08;6.90;99.90
23237;DHT22;11787;52.018;8.570;2023-03-17T00:30:38;6.80;99.90
23237;DHT22;11787;52.018;8.570;2023-03-17T00:33:03;6.80;99.90
23237;DHT22;11787;52.018;8.570;2023-03-17T00:35:29;6.80;99.90
23237;DHT22;11787;52.018;8.570;2023-03-17T00:37:55;6.80;99.90
23237;DHT22;11787;52.018;8.570;2023-03-17T00:40:22;6.80;99.90
23237;DHT22;11787;52.018;8.570;2023-03-17T00:42:49;6.70;99.90
23237;DHT22;11787;52.018;8.570;2023-03-17T00:45:14;6.50;99.90
23237;DHT22;11787;52.018;8.570;2023-03-17T00:47:41;6.60;99.90
23237;DHT22;11787;52.018;8.570;2023-03-17T00:50:09;6.60;99.90
23237;DHT22;11787;52.018;8.570;2023-03-17T00:52:35;6.60;99.90
23237;DHT22;11787;52.018;8.570;2023-03-17T00:55:00;6.60;99.90
23237;DHT22;11787;52.018;8.570;2023-03-17T00:57:26;6.50;99.90
23237;DHT22;11787;52.018;8.570;2023-03-17T00:59:52;6.50;99.90
23237;DHT22;11787;52.018;8.570;2023-03-17T01:02:17;6.50;99.90
23237;DHT22;11787;52.018;8.570;2023-03-17T01:04:43;6.50;99.90
23237;DHT22;11787;52.018;8.570;2023-03-17T01:07:09;6.50;99.90
23237;DHT22;11787;52.018;8.570;2023-03-17T01:09:36;6.50;99.90
23237;DHT22;11787;52.018;8.570;2023-03-17T01:12:02;6.50;99.90
23237;DHT22;11787;52.018;8.570;2023-03-17T01:14:27;6.60;99.90
23237;DHT22;11787;52.018;8.570;2023-03-17T01:16:53;6.50;99.90
23237;DHT22;11787;52.018;8.570;2023-03-17T01:19:19;6.50;99.90
23237;DHT22;11787;52.018;8.570;2023-03-17T01:21:45;6.50;99.90
23237;DHT22;11787;52.018;8.570;2023-03-17T01:24:12;6.50;99.90
23237;DHT22;11787;52.018;8.570;2023-03-17T01:26:38;6.50;99.90
23237;DHT22;11787;52.018;8.570;2023-03-17T01:29:04;6.50;99.90
23237;DHT22;11787;52.018;8.570;2023-03-17T01:31:32;6.40;99.90
23237;DHT22;11787;52.018;8.570;2023-03-17T01:33:58;6.40;99.90
23237;DHT22;11787;52.018;8.570;2023-03-17T01:36:23;6.40;99.90
23237;DHT22;11787;52.018;8.570;2023-03-17T01:38:48;6.40;99.90
23237;DHT22;11787;52.018;8.570;2023-03-17T01:41:16;6.40;99.90
23237;DHT22;11787;52.018;8.570;2023-03-17T01:43:41;6.40;99.90
23237;DHT22;11787;52.018;8.570;2023-03-17T01:46:18;6.30;99.90
23237;DHT22;11787;52.018;8.570;2023-03-17T01:57:41;6.30;99.90
23237;DHT22;11787;52.018;8.570;2023-03-17T01:59:58;6.30;99.90
23237;DHT22;11787;52.018;8.570;2023-03-17T02:02:30;6.30;99.90
23237;DHT22;11787;52.018;8.570;2023-03-17T02:04:56;6.30;99.90
23237;DHT22;11787;52.018;8.570;2023-03-17T02:07:22;6.20;99.90
23237;DHT22;11787;52.018;8.570;2023-03-17T02:09:48;6.30;99.90
23237;DHT22;11787;52.018;8.570;2023-03-17T02:12:15;6.30;99.90
23237;DHT22;11787;52.018;8.570;2023-03-17T02:14:40;6.40;99.90
23237;DHT22;11787;52.018;8.570;2023-03-17T02:17:06;6.40;99.90
23237;DHT22;11787;52.018;8.570;2023-03-17T02:19:32;6.40;99.90
23237;DHT22;11787;52.018;8.570;2023-03-17T02:21:58;6.40;99.90
23237;DHT22;11787;52.018;8.570;2023-03-17T02:24:27;6.40;99.90
23237;DHT22;11787;52.018;8.570;2023-03-17T02:26:54;6.40;99.90
23237;DHT22;11787;52.018;8.570;2023-03-17T02:29:21;6.40;99.90
23237;DHT22;11787;52.018;8.570;2023-03-17T02:31:46;6.40;99.90
23237;DHT22;11787;52.018;8.570;2023-03-17T02:34:13;6.30;99.90
23237;DHT22;11787;52.018;8.570;2023-03-17T02:36:40;6.40;99.90
23237;DHT22;11787;52.018;8.570;2023-03-17T02:39:06;6.30;99.90
23237;DHT22;11787;52.018;8.570;2023-03-17T02:41:32;6.30;99.90
23237;DHT22;11787;52.018;8.570;2023-03-17T02:43:58;6.20;99.90
23237;DHT22;11787;52.018;8.570;2023-03-17T02:46:24;6.20;99.90
23237;DHT22;11787;52.018;8.570;2023-03-17T02:48:49;6.20;99.90
23237;DHT22;11787;52.018;8.570;2023-03-17T02:51:15;6.10;99.90
23237;DHT22;11787;52.018;8.570;2023-03-17T02:53:40;6.10;99.90
23237;DHT22;11787;52.018;8.570;2023-03-17T02:56:06;6.10;99.90
23237;DHT22;11787;52.018;8.570;2023-03-17T02:58:32;6.10;99.90
23237;DHT22;11787;52.018;8.570;2023-03-17T03:00:57;6.00;99.90
23237;DHT22;11787;52.018;8.570;2023-03-17T03:03:22;6.10;99.90
23237;DHT22;11787;52.018;8.570;2023-03-17T03:05:48;6.10;99.90
23237;DHT22;11787;52.018;8.570;2023-03-17T03:08:13;6.10;99.90
23237;DHT22;11787;52.018;8.570;2023-03-17T03:10:40;6.10;99.90
23237;DHT22;11787;52.018;8.570;2023-03-17T03:13:06;6.10;99.90
23237;DHT22;11787;52.018;8.570;2023-03-17T03:15:32;6.10;99.90
23237;DHT22;11787;52.018;8.570;2023-03-17T03:17:57;6.20;99.90
23237;DHT22;11787;52.018;8.570;2023-03-17T03:20:23;6.20;99.90
23237;DHT22;11787;52.018;8.570;2023-03-17T03:22:48;6.20;99.90
23237;DHT22;11787;52.018;8.570;2023-03-17T03:25:14;6.20;99.90
23237;DHT22;11787;52.018;8.570;2023-03-17T03:27:40;6.20;99.90
23237;DHT22;11787;52.018;8.570;2023-03-17T03:30:06;6.20;99.90
23237;DHT22;11787;52.018;8.570;2023-03-17T03:32:32;6.10;99.90
23237;DHT22;11787;52.018;8.570;2023-03-17T03:34:58;6.10;99.90
23237;DHT22;11787;52.018;8.570;2023-03-17T03:37:24;6.20;99.90
23237;DHT22;11787;52.018;8.570;2023-03-17T03:39:50;6.20;99.90
23237;DHT22;11787;52.018;8.570;2023-03-17T03:42:15;6.20;99.90
23237;DHT22;11787;52.018;8.570;2023-03-17T03:44:41;6.30;99.90
23237;DHT22;11787;52.018;8.570;2023-03-17T03:47:06;6.30;99.90
23237;DHT22;11787;52.018;8.570;2023-03-17T03:49:32;6.20;99.90
23237;DHT22;11787;52.018;8.570;2023-03-17T03:51:57;6.30;99.90
23237;DHT22;11787;52.018;8.570;2023-03-17T03:54:23;6.40;99.90
23237;DHT22;11787;52.018;8.570;2023-03-17T03:56:48;6.40;99.90
23237;DHT22;11787;52.018;8.570;2023-03-17T03:59:14;6.40;99.90
23237;DHT22;11787;52.018;8.570;2023-03-17T04:01:40;6.40;99.90
23237;DHT22;11787;52.018;8.570;2023-03-17T04:04:06;6.30;99.90
23237;DHT22;11787;52.018;8.570;2023-03-17T04:06:31;6.30;99.90
23237;DHT22;11787;52.018;8.570;2023-03-17T04:08:57;6.30;99.90
23237;DHT22;11787;52.018;8.570;2023-03-17T04:11:22;6.30;99.90
23237;DHT22;11787;52.018;8.570;2023-03-17T04:13:47;6.30;99.90
23237;DHT22;11787;52.018;8.570;2023-03-17T04:16:13;6.30;99.90
23237;DHT22;11787;52.018;8.570;2023-03-17T04:18:38;6.20;99.90
23237;DHT22;11787;52.018;8.570;2023-03-17T04:21:04;6.30;99.90
23237;DHT22;11787;52.018;8.570;2023-03-17T04:23:30;6.20;99.90
23237;DHT22;11787;52.018;8.570;2023-03-17T04:25:56;6.30;99.90
23237;DHT22;11787;52.018;8.570;2023-03-17T04:28:22;6.20;99.90
23237;DHT22;11787;52.018;8.570;2023-03-17T04:30:48;6.20;99.90
23237;DHT22;11787;52.018;8.570;2023-03-17T04:33:13;6.10;99.90
23237;DHT22;11787;52.018;8.570;2023-03-17T04:35:39;6.10;99.90
23237;DHT22;11787;52.018;8.570;2023-03-17T04:38:04;6.10;99.90
23237;DHT22;11787;52.018;8.570;2023-03-17T04:40:31;6.10;99.90
23237;DHT22;11787;52.018;8.570;2023-03-17T04:42:56;6.10;99.90
23237;DHT22;11787;52.018;8.570;2023-03-17T04:45:22;6.00;99.90
23237;DHT22;11787;52.018;8.570;2023-03-17T04:47:47;5.90;99.90
23237;DHT22;11787;52.018;8.570;2023-03-17T04:50:13;5.90;99.90
23237;DHT22;11787;52.018;8.570;2023-03-17T04:52:38;5.90;99.90
23237;DHT22;11787;52.018;8.570;2023-03-17T04:55:04;5.90;99.90
23237;DHT22;11787;52.018;8.570;2023-03-17T04:57:29;5.90;99.90
23237;DHT22;11787;52.018;8.570;2023-03-17T04:59:55;5.80;99.90
23237;DHT22;11787;52.018;8.570;2023-03-17T05:02:22;5.90;99.90
23237;DHT22;11787;52.018;8.570;2023-03-17T05:04:47;5.80;99.90
23237;DHT22;11787;52.018;8.570;2023-03-17T05:07:13;5.80;99.90
23237;DHT22;11787;52.018;8.570;2023-03-17T05:09:38;5.80;99.90
23237;DHT22;11787;52.018;8.570;2023-03-17T05:12:04;5.80;99.90
23237;DHT22;11787;52.018;8.570;2023-03-17T05:14:30;5.80;99.90
23237;DHT22;11787;52.018;8.570;2023-03-17T05:16:55;5.70;99.90
23237;DHT22;11787;52.018;8.570;2023-03-17T05:19:21;5.70;99.90
23237;DHT22;11787;52.018;8.570;2023-03-17T05:21:47;5.70;99.90
23237;DHT22;11787;52.018;8.570;2023-03-17T05:24:12;5.70;99.90
23237;DHT22;11787;52.018;8.570;2023-03-17T05:26:38;5.70;99.90
23237;DHT22;11787;52.018;8.570;2023-03-17T05:29:04;5.70;99.90
23237;DHT22;11787;52.018;8.570;2023-03-17T05:31:30;5.70;99.90
23237;DHT22;11787;52.018;8.570;2023-03-17T05:33:56;5.70;99.90
23237;DHT22;11787;52.018;8.570;2023-03-17T05:36:21;5.60;99.90
23237;DHT22;11787;52.018;8.570;2023-03-17T05:38:47;5.70;99.90
23237;DHT22;11787;52.018;8.570;2023-03-17T05:41:12;5.60;99.90
23237;DHT22;11787;52.018;8.570;2023-03-17T05:43:37;5.60;99.90
23237;DHT22;11787;52.018;8.570;2023-03-17T05:46:03;5.60;99.90
23237;DHT22;11787;52.018;8.570;2023-03-17T05:48:30;5.50;99.90
23237;DHT22;11787;52.018;8.570;2023-03-17T05:50:55;5.50;99.90
23237;DHT22;11787;52.018;8.570;2023-03-17T05:53:21;5.50;99.90
23237;DHT22;11787;52.018;8.570;2023-03-17T05:55:47;5.50;99.90
23237;DHT22;11787;52.018;8.570;2023-03-17T05:58:13;5.50;99.90
23237;DHT22;11787;52.018;8.570;2023-03-17T06:00:40;5.50;99.90
23237;DHT22;11787;52.018;8.570;2023-03-17T06:03:05;5.40;99.90
23237;DHT22;11787;52.018;8.570;2023-03-17T06:05:32;5.40;99.90
23237;DHT22;11787;52.018;8.570;2023-03-17T06:07:57;5.40;99.90
23237;DHT22;11787;52.018;8.570;2023-03-17T06:10:23;5.40;99.90
23237;DHT22;11787;52.018;8.570;2023-03-17T06:12:48;5.40;99.90
23237;DHT22;11787;52.018;8.570;2023-03-17T06:15:14;5.40;99.90
23237;DHT22;11787;52.018;8.570;2023-03-17T06:17:41;5.40;99.90
23237;DHT22;11787;52.018;8.570;2023-03-17T06:20:07;5.40;99.90
23237;DHT22;11787;52.018;8.570;2023-03-17T06:22:32;5.40;99.90
23237;DHT22;11787;52.018;8.570;2023-03-17T06:24:58;5.40;99.90
23237;DHT22;11787;52.018;8.570;2023-03-17T06:27:23;5.30;99.90
23237;DHT22;11787;52.018;8.570;2023-03-17T06:29:49;5.30;99.90
23237;DHT22;11787;52.018;8.570;2023-03-17T06:32:14;5.40;99.90
23237;DHT22;11787;52.018;8.570;2023-03-17T06:34:40;5.50;99.90
23237;DHT22;11787;52.018;8.570;2023-03-17T06:37:07;5.50;99.90
23237;DHT22;11787;52.018;8.570;2023-03-17T06:39:32;5.50;99.90
23237;DHT22;11787;52.018;8.570;2023-03-17T06:41:58;5.50;99.90
23237;DHT22;11787;52.018;8.570;2023-03-17T06:44:23;5.60;99.90
23237;DHT22;11787;52.018;8.570;2023-03-17T06:46:49;5.70;99.90
23237;DHT22;11787;52.018;8.570;2023-03-17T06:49:15;5.70;99.90
23237;DHT22;11787;52.018;8.570;2023-03-17T06:51:40;5.70;99.90
23237;DHT22;11787;52.018;8.570;2023-03-17T06:54:06;5.70;99.90
23237;DHT22;11787;52.018;8.570;2023-03-17T06:56:32;5.80;99.90
23237;DHT22;11787;52.018;8.570;2023-03-17T06:58:58;5.90;99.90
23237;DHT22;11787;52.018;8.570;2023-03-17T07:01:24;6.00;99.90
23237;DHT22;11787;52.018;8.570;2023-03-17T07:03:51;6.10;99.90
23237;DHT22;11787;52.018;8.570;2023-03-17T07:06:17;6.20;99.90
23237;DHT22;11787;52.018;8.570;2023-03-17T07:08:42;6.20;99.90
23237;DHT22;11787;52.018;8.570;2023-03-17T07:11:08;6.20;99.90
23237;DHT22;11787;52.018;8.570;2023-03-17T07:13:34;6.20;99.90
23237;DHT22;11787;52.018;8.570;2023-03-17T07:16:01;6.30;99.90
23237;DHT22;11787;52.018;8.570;2023-03-17T07:18:27;6.50;99.90
23237;DHT22;11787;52.018;8.570;2023-03-17T07:20:59;6.60;99.90
23237;DHT22;11787;52.018;8.570;2023-03-17T07:23:26;6.60;99.90
23237;DHT22;11787;52.018;8.570;2023-03-17T07:25:51;6.70;99.90
23237;DHT22;11787;52.018;8.570;2023-03-17T07:28:17;6.80;99.90
23237;DHT22;11787;52.018;8.570;2023-03-17T07:30:43;6.90;99.90
23237;DHT22;11787;52.018;8.570;2023-03-17T07:33:14;6.90;99.90
23237;DHT22;11787;52.018;8.570;2023-03-17T07:35:42;7.00;99.90
23237;DHT22;11787;52.018;8.570;2023-03-17T07:38:08;7.10;99.90
23237;DHT22;11787;52.018;8.570;2023-03-17T07:40:34;7.10;99.90
23237;DHT22;11787;52.018;8.570;2023-03-17T07:42:59;7.30;99.90
23237;DHT22;11787;52.018;8.570;2023-03-17T07:45:25;7.40;99.90
23237;DHT22;11787;52.018;8.570;2023-03-17T07:47:51;7.50;99.90
23237;DHT22;11787;52.018;8.570;2023-03-17T07:50:18;7.60;99.90
23237;DHT22;11787;52.018;8.570;2023-03-17T07:52:44;7.60;99.90
23237;DHT22;11787;52.018;8.570;2023-03-17T07:55:10;7.70;99.90
23237;DHT22;11787;52.018;8.570;2023-03-17T07:57:37;7.70;99.90
23237;DHT22;11787;52.018;8.570;2023-03-17T08:00:03;7.90;99.90
23237;DHT22;11787;52.018;8.570;2023-03-17T08:02:28;8.00;99.90
23237;DHT22;11787;52.018;8.570;2023-03-17T08:04:54;8.10;99.90
23237;DHT22;11787;52.018;8.570;2023-03-17T08:07:20;8.20;99.90
23237;DHT22;11787;52.018;8.570;2023-03-17T08:09:46;8.40;99.90
23237;DHT22;11787;52.018;8.570;2023-03-17T08:12:12;8.40;99.90
23237;DHT22;11787;52.018;8.570;2023-03-17T08:14:38;8.60;99.90
23237;DHT22;11787;52.018;8.570;2023-03-17T08:17:03;8.70;99.90
23237;DHT22;11787;52.018;8.570;2023-03-17T08:19:29;8.80;99.90
23237;DHT22;11787;52.018;8.570;2023-03-17T08:21:54;8.80;99.90
23237;DHT22;11787;52.018;8.570;2023-03-17T08:24:20;9.00;99.90
23237;DHT22;11787;52.018;8.570;2023-03-17T08:26:47;9.10;99.90
23237;DHT22;11787;52.018;8.570;2023-03-17T08:29:13;9.20;99.90
23237;DHT22;11787;52.018;8.570;2023-03-17T08:31:39;9.10;99.90
23237;DHT22;11787;52.018;8.570;2023-03-17T08:34:05;9.30;99.90
23237;DHT22;11787;52.018;8.570;2023-03-17T08:36:31;9.20;99.90
23237;DHT22;11787;52.018;8.570;2023-03-17T08:38:57;9.30;99.90
23237;DHT22;11787;52.018;8.570;2023-03-17T08:41:23;9.40;99.90
23237;DHT22;11787;52.018;8.570;2023-03-17T08:43:49;9.50;99.90
23237;DHT22;11787;52.018;8.570;2023-03-17T08:46:27;9.60;99.90
23237;DHT22;11787;52.018;8.570;2023-03-17T08:48:55;9.60;99.90
23237;DHT22;11787;52.018;8.570;2023-03-17T08:51:23;9.70;99.90
23237;DHT22;11787;52.018;8.570;2023-03-17T08:53:49;9.80;99.90
23237;DHT22;11787;52.018;8.570;2023-03-17T08:56:15;9.80;99.90
23237;DHT22;11787;52.018;8.570;2023-03-17T08:58:41;9.90;99.90
23237;DHT22;11787;52.018;8.570;2023-03-17T09:01:08;9.90;99.90
23237;DHT22;11787;52.018;8.570;2023-03-17T09:03:35;10.00;99.90
23237;DHT22;11787;52.018;8.570;2023-03-17T09:06:01;10.10;99.90
23237;DHT22;11787;52.018;8.570;2023-03-17T09:08:30;10.20;99.90
23237;DHT22;11787;52.018;8.570;2023-03-17T09:10:56;10.20;99.90
23237;DHT22;11787;52.018;8.570;2023-03-17T09:13:22;10.30;99.90
23237;DHT22;11787;52.018;8.570;2023-03-17T09:15:48;10.40;99.90
23237;DHT22;11787;52.018;8.570;2023-03-17T09:18:13;10.60;99.90
23237;DHT22;11787;52.018;8.570;2023-03-17T09:20:39;10.70;99.90
23237;DHT22;11787;52.018;8.570;2023-03-17T09:23:07;10.80;99.90
23237;DHT22;11787;52.018;8.570;2023-03-17T09:25:33;10.90;99.90
23237;DHT22;11787;52.018;8.570;2023-03-17T09:27:59;11.10;99.90
23237;DHT22;11787;52.018;8.570;2023-03-17T09:30:25;11.20;99.90
23237;DHT22;11787;52.018;8.570;2023-03-17T09:32:51;11.30;99.90
23237;DHT22;11787;52.018;8.570;2023-03-17T09:35:16;11.40;99.90
23237;DHT22;11787;52.018;8.570;2023-03-17T09:37:42;11.40;99.90
23237;DHT22;11787;52.018;8.570;2023-03-17T09:40:09;11.50;99.90
23237;DHT22;11787;52.018;8.570;2023-03-17T09:42:42;11.60;99.90
23237;DHT22;11787;52.018;8.570;2023-03-17T09:50:21;12.00;99.90
23237;DHT22;11787;52.018;8.570;2023-03-17T09:52:48;12.20;99.90
23237;DHT22;11787;52.018;8.570;2023-03-17T09:55:49;12.30;99.90
23237;DHT22;11787;52.018;8.570;2023-03-17T09:58:07;12.40;99.90
23237;DHT22;11787;52.018;8.570;2023-03-17T10:00:34;12.50;99.90
23237;DHT22;11787;52.018;8.570;2023-03-17T10:02:59;12.70;99.90
23237;DHT22;11787;52.018;8.570;2023-03-17T10:05:30;12.90;99.90
23237;DHT22;11787;52.018;8.570;2023-03-17T10:10:46;13.10;99.90
23237;DHT22;11787;52.018;8.570;2023-03-17T10:13:21;13.40;99.90
23237;DHT22;11787;52.018;8.570;2023-03-17T10:15:50;13.80;99.90
23237;DHT22;11787;52.018;8.570;2023-03-17T10:18:17;14.10;99.90
23237;DHT22;11787;52.018;8.570;2023-03-17T10:20:56;14.30;99.90
23237;DHT22;11787;52.018;8.570;2023-03-17T10:23:26;14.50;99.90
23237;DHT22;11787;52.018;8.570;2023-03-17T10:25:56;14.90;99.90
23237;DHT22;11787;52.018;8.570;2023-03-17T10:28:31;15.30;99.90
23237;DHT22;11787;52.018;8.570;2023-03-17T10:31:13;15.70;99.90
23237;DHT22;11787;52.018;8.570;2023-03-17T10:33:40;15.90;99.90
23237;DHT22;11787;52.018;8.570;2023-03-17T10:36:06;16.20;99.90
23237;DHT22;11787;52.018;8.570;2023-03-17T10:38:31;16.40;99.90
23237;DHT22;11787;52.018;8.570;2023-03-17T10:40:58;16.40;99.90
23237;DHT22;11787;52.018;8.570;2023-03-17T10:43:27;16.70;99.90
23237;DHT22;11787;52.018;8.570;2023-03-17T10:45:56;16.90;99.90
23237;DHT22;11787;52.018;8.570;2023-03-17T10:48:22;17.00;99.90
23237;DHT22;11787;52.018;8.570;2023-03-17T10:50:48;17.10;99.90
23237;DHT22;11787;52.018;8.570;2023-03-17T10:53:19;17.30;99.90
23237;DHT22;11787;52.018;8.570;2023-03-17T10:55:53;17.30;99.90
23237;DHT22;11787;52.018;8.570;2023-03-17T10:58:20;17.50;99.90
23237;DHT22;11787;52.018;8.570;2023-03-17T11:00:52;17.60;99.90
23237;DHT22;11787;52.018;8.570;2023-03-17T11:03:23;17.80;99.90
23237;DHT22;11787;52.018;8.570;2023-03-17T11:05:53;17.70;99.90
23237;DHT22;11787;52.018;8.570;2023-03-17T11:08:20;18.00;99.90
23237;DHT22;11787;52.018;8.570;2023-03-17T11:10:53;18.10;99.90
23237;DHT22;11787;52.018;8.570;2023-03-17T11:13:19;18.00;99.90
23237;DHT22;11787;52.018;8.570;2023-03-17T11:15:47;17.70;99.90
23237;DHT22;11787;52.018;8.570;2023-03-17T11:18:25;17.50;99.90
23237;DHT22;11787;52.018;8.570;2023-03-17T11:28:49;17.40;99.90
23237;DHT22;11787;52.018;8.570;2023-03-17T11:31:18;17.30;99.90
23237;DHT22;11787;52.018;8.570;2023-03-17T11:33:57;17.20;99.90
23237;DHT22;11787;52.018;8.570;2023-03-17T11:36:34;16.90;99.90
23237;DHT22;11787;52.018;8.570;2023-03-17T11:49:35;16.60;99.90
23237;DHT22;11787;52.018;8.570;2023-03-17T11:52:03;16.60;99.90
23237;DHT22;11787;52.018;8.570;2023-03-17T11:54:45;16.60;99.90
23237;DHT22;11787;52.018;8.570;2023-03-17T11:57:26;16.60;99.90
23237;DHT22;11787;52.018;8.570;2023-03-17T12:05:20;16.70;99.90
23237;DHT22;11787;52.018;8.570;2023-03-17T12:12:48;16.60;99.90
23237;DHT22;11787;52.018;8.570;2023-03-17T12:15:48;16.60;99.90
23237;DHT22;11787;52.018;8.570;2023-03-17T12:18:14;16.60;99.90
23237;DHT22;11787;52.018;8.570;2023-03-17T12:20:52;16.70;99.90
23237;DHT22;11787;52.018;8.570;2023-03-17T12:26:02;17.00;99.90
23237;DHT22;11787;52.018;8.570;2023-03-17T12:28:35;17.30;99.90
23237;DHT22;11787;52.018;8.570;2023-03-17T12:31:13;17.40;99.90
23237;DHT22;11787;52.018;8.570;2023-03-17T12:36:24;17.70;99.90
23237;DHT22;11787;52.018;8.570;2023-03-17T12:38:55;17.80;99.90
23237;DHT22;11787;52.018;8.570;2023-03-17T12:41:27;17.80;99.90
23237;DHT22;11787;52.018;8.570;2023-03-17T13:14:23;17.30;99.90
23237;DHT22;11787;52.018;8.570;2023-03-17T13:16:50;17.20;99.90
23237;DHT22;11787;52.018;8.570;2023-03-17T13:19:21;17.20;99.90
23237;DHT22;11787;52.018;8.570;2023-03-17T13:24:49;17.30;99.90
23237;DHT22;11787;52.018;8.570;2023-03-17T13:29:58;17.40;99.90
23237;DHT22;11787;52.018;8.570;2023-03-17T13:43:01;17.50;99.90
23237;DHT22;11787;52.018;8.570;2023-03-17T13:45:38;17.50;99.90
23237;DHT22;11787;52.018;8.570;2023-03-17T13:48:36;17.50;99.90
23237;DHT22;11787;52.018;8.570;2023-03-17T13:53:29;17.60;99.90
23237;DHT22;11787;52.018;8.570;2023-03-17T13:58:33;17.60;99.90
23237;DHT22;11787;52.018;8.570;2023-03-17T14:01:03;17.60;99.90
23237;DHT22;11787;52.018;8.570;2023-03-17T14:03:38;17.60;99.90
23237;DHT22;11787;52.018;8.570;2023-03-17T14:06:06;17.50;99.90
23237;DHT22;11787;52.018;8.570;2023-03-17T14:08:35;17.50;99.90
23237;DHT22;11787;52.018;8.570;2023-03-17T14:11:06;17.60;99.90
23237;DHT22;11787;52.018;8.570;2023-03-17T14:13:52;17.50;99.90
23237;DHT22;11787;52.018;8.570;2023-03-17T14:16:25;17.50;99.90
23237;DHT22;11787;52.018;8.570;2023-03-17T14:18:59;17.50;99.90
23237;DHT22;11787;52.018;8.570;2023-03-17T14:21:32;17.50;99.90
23237;DHT22;11787;52.018;8.570;2023-03-17T14:24:00;17.50;99.90
23237;DHT22;11787;52.018;8.570;2023-03-17T14:26:30;17.40;99.90
23237;DHT22;11787;52.018;8.570;2023-03-17T14:29:01;17.40;99.90
23237;DHT22;11787;52.018;8.570;2023-03-17T14:31:29;17.40;99.90
23237;DHT22;11787;52.018;8.570;2023-03-17T14:33:57;17.40;99.90
23237;DHT22;11787;52.018;8.570;2023-03-17T14:36:24;17.30;99.90
23237;DHT22;11787;52.018;8.570;2023-03-17T14:38:54;17.30;99.90
23237;DHT22;11787;52.018;8.570;2023-03-17T14:41:25;17.20;99.90
23237;DHT22;11787;52.018;8.570;2023-03-17T14:43:55;17.10;99.90
23237;DHT22;11787;52.018;8.570;2023-03-17T14:46:22;17.00;99.90
23237;DHT22;11787;52.018;8.570;2023-03-17T14:48:50;17.00;99.90
23237;DHT22;11787;52.018;8.570;2023-03-17T14:53:55;17.00;99.90
23237;DHT22;11787;52.018;8.570;2023-03-17T14:56:38;17.00;99.90
23237;DHT22;11787;52.018;8.570;2023-03-17T15:01:44;16.90;99.90
23237;DHT22;11787;52.018;8.570;2023-03-17T15:04:17;16.80;99.90
23237;DHT22;11787;52.018;8.570;2023-03-17T15:09:27;16.80;99.90
23237;DHT22;11787;52.018;8.570;2023-03-17T15:14:36;16.70;99.90
23237;DHT22;11787;52.018;8.570;2023-03-17T15:17:05;16.70;99.90
23237;DHT22;11787;52.018;8.570;2023-03-17T15:19:39;16.50;99.90
23237;DHT22;11787;52.018;8.570;2023-03-17T15:22:26;16.40;99.90
23237;DHT22;11787;52.018;8.570;2023-03-17T15:27:47;16.30;99.90
23237;DHT22;11787;52.018;8.570;2023-03-17T15:30:13;16.20;99.90
23237;DHT22;11787;52.018;8.570;2023-03-17T15:32:39;16.10;99.90
23237;DHT22;11787;52.018;8.570;2023-03-17T15:35:06;16.00;99.90
23237;DHT22;11787;52.018;8.570;2023-03-17T15:37:33;16.00;99.90
23237;DHT22;11787;52.018;8.570;2023-03-17T15:40:00;15.90;99.90
23237;DHT22;11787;52.018;8.570;2023-03-17T15:42:30;15.90;99.90
23237;DHT22;11787;52.018;8.570;2023-03-17T15:44:56;15.80;99.90
23237;DHT22;11787;52.018;8.570;2023-03-17T15:47:26;15.70;99.90
23237;DHT22;11787;52.018;8.570;2023-03-17T15:50:37;15.70;99.90
23237;DHT22;11787;52.018;8.570;2023-03-17T15:52:44;15.60;99.90
23237;DHT22;11787;52.018;8.570;2023-03-17T15:55:21;15.60;99.90
23237;DHT22;11787;52.018;8.570;2023-03-17T15:57:47;15.50;99.90
23237;DHT22;11787;52.018;8.570;2023-03-17T16:00:15;15.50;99.90
23237;DHT22;11787;52.018;8.570;2023-03-17T16:02:42;15.50;99.90
23237;DHT22;11787;52.018;8.570;2023-03-17T16:05:16;15.40;99.90
23237;DHT22;11787;52.018;8.570;2023-03-17T16:07:42;15.40;99.90
23237;DHT22;11787;52.018;8.570;2023-03-17T16:10:23;15.40;99.90
23237;DHT22;11787;52.018;8.570;2023-03-17T16:12:49;15.40;99.90
23237;DHT22;11787;52.018;8.570;2023-03-17T16:15:20;15.30;99.90
23237;DHT22;11787;52.018;8.570;2023-03-17T16:17:48;15.30;99.90
23237;DHT22;11787;52.018;8.570;2023-03-17T16:20:39;15.20;99.90
23237;DHT22;11787;52.018;8.570;2023-03-17T16:23:19;15.20;99.90
23237;DHT22;11787;52.018;8.570;2023-03-17T16:25:46;15.10;99.90
23237;DHT22;11787;52.018;8.570;2023-03-17T16:28:17;15.00;99.90
23237;DHT22;11787;52.018;8.570;2023-03-17T16:30:45;14.90;99.90
23237;DHT22;11787;52.018;8.570;2023-03-17T16:33:16;14.90;99.90
23237;DHT22;11787;52.018;8.570;2023-03-17T16:35:42;14.80;99.90
23237;DHT22;11787;52.018;8.570;2023-03-17T16:38:12;14.70;99.90
23237;DHT22;11787;52.018;8.570;2023-03-17T16:40:38;14.70;99.90
23237;DHT22;11787;52.018;8.570;2023-03-17T16:43:05;14.60;99.90
23237;DHT22;11787;52.018;8.570;2023-03-17T16:45:36;14.50;99.90
23237;DHT22;11787;52.018;8.570;2023-03-17T16:48:03;14.50;99.90
23237;DHT22;11787;52.018;8.570;2023-03-17T16:50:31;14.40;99.90
23237;DHT22;11787;52.018;8.570;2023-03-17T16:52:58;14.40;99.90
23237;DHT22;11787;52.018;8.570;2023-03-17T16:55:25;14.30;99.90
23237;DHT22;11787;52.018;8.570;2023-03-17T16:57:54;14.30;99.90
23237;DHT22;11787;52.018;8.570;2023-03-17T17:00:22;14.20;99.90
23237;DHT22;11787;52.018;8.570;2023-03-17T17:02:49;14.20;99.90
23237;DHT22;11787;52.018;8.570;2023-03-17T17:05:21;14.10;99.90
23237;DHT22;11787;52.018;8.570;2023-03-17T17:07:47;14.10;99.90
23237;DHT22;11787;52.018;8.570;2023-03-17T17:10:17;14.10;99.90
23237;DHT22;11787;52.018;8.570;2023-03-17T17:12:43;14.10;99.90
23237;DHT22;11787;52.018;8.570;2023-03-17T17:15:10;14.00;99.90
23237;DHT22;11787;52.018;8.570;2023-03-17T17:17:37;14.00;99.90
23237;DHT22;11787;52.018;8.570;2023-03-17T17:20:14;13.90;99.90
23237;DHT22;11787;52.018;8.570;2023-03-17T17:22:40;13.90;99.90
23237;DHT22;11787;52.018;8.570;2023-03-17T17:25:06;13.80;99.90
23237;DHT22;11787;52.018;8.570;2023-03-17T17:27:36;13.80;99.90
23237;DHT22;11787;52.018;8.570;2023-03-17T17:30:02;13.80;99.90
23237;DHT22;11787;52.018;8.570;2023-03-17T17:32:28;13.70;99.90
23237;DHT22;11787;52.018;8.570;2023-03-17T17:34:53;13.70;99.90
23237;DHT22;11787;52.018;8.570;2023-03-17T17:37:20;13.70;99.90
23237;DHT22;11787;52.018;8.570;2023-03-17T17:39:46;13.70;99.90